createdAt,value
2022-11-04T00:01:46.202Z,2.43
2022-11-04T00:04:14.988Z,1.87
2022-11-04T00:06:42.216Z,2.10
2022-11-04T00:09:13.246Z,2.53
2022-11-04T00:11:58.731Z,1.83
2022-11-04T00:14:25.891Z,2.43
2022-11-04T00:17:11.698Z,2.13
2022-11-04T00:19:58.946Z,2.20
2022-11-04T00:22:44.952Z,2.00
2022-11-04T00:25:31.705Z,2.00
2022-11-04T00:28:34.286Z,2.10
2022-11-04T00:31:21.429Z,1.60
2022-11-04T00:33:49.925Z,1.73
2022-11-04T00:36:17.561Z,1.80
2022-11-04T00:38:45.007Z,1.80
2022-11-04T00:41:27.908Z,2.40
2022-11-04T00:44:01.395Z,1.90
2022-11-04T00:46:30.697Z,2.20
2022-11-04T00:48:57.901Z,1.40
2022-11-04T00:51:27.858Z,1.60
2022-11-04T00:53:56.042Z,1.60
2022-11-04T00:56:23.219Z,1.60
2022-11-04T00:58:50.528Z,1.10
2022-11-04T01:01:19.107Z,0.87
2022-11-04T01:03:52.258Z,0.90
2022-11-04T01:06:20.619Z,1.27
2022-11-04T01:08:48.363Z,1.30
2022-11-04T01:11:16.230Z,1.50
2022-11-04T01:13:43.284Z,1.10
2022-11-04T01:16:12.754Z,1.20
2022-11-04T01:18:40.136Z,1.10
2022-11-04T01:21:09.033Z,1.13
2022-11-04T01:23:36.465Z,1.20
2022-11-04T01:26:07.771Z,1.10
2022-11-04T01:28:34.990Z,1.13
2022-11-04T01:31:14.147Z,1.47
2022-11-04T01:33:41.851Z,1.47
2022-11-04T01:36:10.452Z,1.00
2022-11-04T01:38:37.616Z,1.70
2022-11-04T01:41:05.537Z,1.60
2022-11-04T01:44:24.947Z,1.70
2022-11-04T01:46:54.205Z,1.43
2022-11-04T01:49:43.294Z,1.87
2022-11-04T01:52:19.833Z,1.20
2022-11-04T01:54:49.548Z,1.53
2022-11-04T01:57:25.522Z,1.00
2022-11-04T01:59:53.020Z,1.30
2022-11-04T02:02:20.084Z,1.20
2022-11-04T02:04:47.473Z,1.20
2022-11-04T02:07:14.777Z,1.70
2022-11-04T02:09:42.624Z,1.60
2022-11-04T02:12:28.828Z,1.40
2022-11-04T02:14:56.153Z,1.70
2022-11-04T02:17:34.074Z,1.70
2022-11-04T02:20:26.977Z,1.80
2022-11-04T02:23:32.876Z,1.60
2022-11-04T02:26:49.950Z,2.03
2022-11-04T02:29:42.455Z,2.00
2022-11-04T02:32:34.561Z,1.73
2022-11-04T02:35:56.436Z,1.80
2022-11-04T02:38:47.977Z,1.80
2022-11-04T02:41:39.408Z,2.00
2022-11-04T02:44:37.805Z,2.40
2022-11-04T02:47:13.621Z,2.03
2022-11-04T02:49:58.496Z,2.20
2022-11-04T02:52:51.419Z,2.07
2022-11-04T02:55:33.927Z,2.40
2022-11-04T02:58:06.095Z,2.70
2022-11-04T03:00:34.382Z,2.53
2022-11-04T03:03:07.412Z,2.17
2022-11-04T03:05:37.623Z,3.20
2022-11-04T03:08:11.168Z,3.20
2022-11-04T03:10:54.976Z,2.87
2022-11-04T03:13:46.340Z,2.50
2022-11-04T03:16:27.031Z,3.00
2022-11-04T03:19:25.671Z,2.30
2022-11-04T03:22:06.203Z,2.60
2022-11-04T03:24:33.519Z,2.43
2022-11-04T03:27:10.532Z,2.60
2022-11-04T03:30:04.705Z,2.03
2022-11-04T03:33:17.046Z,2.10
2022-11-04T03:35:44.267Z,2.27
2022-11-04T03:38:11.404Z,2.10
2022-11-04T03:40:38.386Z,2.27
2022-11-04T03:43:23.422Z,2.00
2022-11-04T03:45:51.285Z,2.50
2022-11-04T03:48:18.836Z,2.50
2022-11-04T03:50:48.138Z,1.90
2022-11-04T03:53:21.735Z,1.93
2022-11-04T03:56:42.659Z,2.60
2022-11-04T03:59:54.045Z,2.40
2022-11-04T04:02:27.686Z,1.93
2022-11-04T04:05:02.009Z,2.83
2022-11-04T04:07:47.926Z,2.23
2022-11-04T04:10:42.067Z,2.70
2022-11-04T04:13:42.148Z,2.40
2022-11-04T04:16:27.082Z,2.60
2022-11-04T04:19:11.987Z,2.30
2022-11-04T04:22:10.569Z,3.00
2022-11-04T04:25:01.560Z,4.80
2022-11-04T04:27:31.812Z,3.13
2022-11-04T04:30:05.389Z,3.03
2022-11-04T04:32:39.485Z,3.10
2022-11-04T04:35:27.643Z,3.07
2022-11-04T04:38:18.288Z,2.47
2022-11-04T04:41:10.697Z,3.80
2022-11-04T04:43:58.122Z,3.30
2022-11-04T04:46:25.437Z,2.90
2022-11-04T04:48:52.279Z,2.60
2022-11-04T04:51:19.771Z,2.50
2022-11-04T04:53:46.750Z,2.97
2022-11-04T04:56:13.701Z,2.97
2022-11-04T04:58:40.640Z,2.77
2022-11-04T05:01:09.166Z,2.70
2022-11-04T05:03:38.748Z,2.10
2022-11-04T05:06:09.334Z,2.23
2022-11-04T05:08:36.332Z,2.10
2022-11-04T05:11:03.624Z,2.37
2022-11-04T05:13:30.708Z,2.10
2022-11-04T05:16:03.559Z,2.57
2022-11-04T05:18:31.182Z,2.43
2022-11-04T05:20:58.141Z,1.60
2022-11-04T05:23:25.162Z,1.80
2022-11-04T05:25:52.144Z,2.50
2022-11-04T05:28:19.225Z,2.27
2022-11-04T05:30:47.637Z,2.63
2022-11-04T05:33:14.574Z,1.93
2022-11-04T05:35:41.700Z,2.47
2022-11-04T05:38:08.700Z,2.70
2022-11-04T05:40:35.708Z,2.77
2022-11-04T05:43:03.206Z,2.30
2022-11-04T05:45:30.281Z,2.17
2022-11-04T05:48:02.283Z,2.23
2022-11-04T05:50:31.674Z,2.50
2022-11-04T05:52:59.728Z,2.10
2022-11-04T05:55:27.730Z,2.47
2022-11-04T05:57:55.158Z,2.03
2022-11-04T06:00:22.313Z,2.13
2022-11-04T06:02:49.299Z,2.13
2022-11-04T06:05:16.407Z,2.03
2022-11-04T06:07:43.293Z,2.00
2022-11-04T06:10:10.589Z,2.20
2022-11-04T06:12:38.090Z,2.80
2022-11-04T06:15:06.026Z,2.20
2022-11-04T06:17:33.008Z,2.30
2022-11-04T06:20:00.079Z,2.70
2022-11-04T06:22:27.090Z,3.10
2022-11-04T06:24:54.352Z,2.60
2022-11-04T06:27:21.388Z,3.70
2022-11-04T06:29:48.512Z,2.93
2022-11-04T06:32:18.730Z,3.50
2022-11-04T06:34:46.101Z,3.67
2022-11-04T06:37:13.054Z,5.10
2022-11-04T06:39:40.433Z,4.30
2022-11-04T06:42:07.436Z,4.63
2022-11-04T06:44:35.011Z,3.47
2022-11-04T06:47:02.134Z,3.50
2022-11-04T06:49:29.098Z,5.70
2022-11-04T06:51:55.972Z,3.73
2022-11-04T06:54:22.916Z,3.10
2022-11-04T06:56:50.133Z,3.07
2022-11-04T06:59:19.424Z,3.70
2022-11-04T07:01:47.505Z,3.60
2022-11-04T07:04:14.547Z,4.90
2022-11-04T07:06:45.049Z,2.80
2022-11-04T07:09:16.026Z,2.80
2022-11-04T07:11:44.299Z,2.77
2022-11-04T07:14:12.254Z,2.20
2022-11-04T07:16:39.429Z,3.20
2022-11-04T07:19:06.987Z,4.77
2022-11-04T07:21:34.026Z,2.57
2022-11-04T07:24:02.025Z,3.27
2022-11-04T07:26:29.056Z,2.73
2022-11-04T07:28:56.014Z,2.43
2022-11-04T07:31:22.975Z,2.53
2022-11-04T07:33:51.714Z,2.10
2022-11-04T07:36:19.922Z,3.40
2022-11-04T07:38:47.487Z,3.30
2022-11-04T07:41:15.540Z,3.40
2022-11-04T07:43:42.683Z,4.07
2022-11-04T07:46:12.423Z,4.30
2022-11-04T07:48:40.070Z,5.00
2022-11-04T07:51:10.945Z,4.13
2022-11-04T07:53:38.059Z,5.67
2022-11-04T07:56:11.806Z,3.40
2022-11-04T07:58:39.283Z,4.13
2022-11-04T08:01:12.177Z,3.03
2022-11-04T08:03:39.729Z,3.73
2022-11-04T08:06:09.364Z,2.60
2022-11-04T08:08:37.605Z,2.10
2022-11-04T08:11:10.378Z,2.97
2022-11-04T08:13:40.034Z,1.70
2022-11-04T08:16:34.162Z,2.20
2022-11-04T08:19:02.677Z,2.70
2022-11-04T08:21:32.946Z,2.13
2022-11-04T08:24:00.457Z,2.87
2022-11-04T08:26:27.421Z,2.47
2022-11-04T08:28:54.636Z,2.93
2022-11-04T08:31:29.312Z,2.90
2022-11-04T08:33:57.203Z,2.50
2022-11-04T08:36:27.494Z,2.50
2022-11-04T08:38:54.729Z,2.87
2022-11-04T08:41:25.293Z,3.57
2022-11-04T08:43:52.567Z,3.23
2022-11-04T08:46:19.997Z,3.80
2022-11-04T08:48:47.215Z,3.30
2022-11-04T08:51:20.953Z,2.00
2022-11-04T08:53:48.209Z,2.90
2022-11-04T08:56:21.093Z,2.30
2022-11-04T08:58:49.118Z,2.03
2022-11-04T09:01:17.201Z,2.37
2022-11-04T09:03:44.244Z,2.50
2022-11-04T09:06:15.657Z,2.03
2022-11-04T09:08:43.551Z,2.27
2022-11-04T09:11:12.961Z,1.67
2022-11-04T09:13:40.514Z,1.90
2022-11-04T09:16:08.683Z,1.57
2022-11-04T09:18:35.671Z,1.57
2022-11-04T09:21:04.132Z,1.40
2022-11-04T09:23:31.166Z,1.60
2022-11-04T09:25:59.688Z,1.90
2022-11-04T09:28:26.622Z,1.60
2022-11-04T09:30:53.556Z,2.07
2022-11-04T09:33:20.536Z,1.40
2022-11-04T09:35:57.907Z,1.13
2022-11-04T09:38:25.795Z,1.47
2022-11-04T09:40:53.218Z,2.20
2022-11-04T09:43:40.658Z,1.93
2022-11-04T09:46:12.088Z,1.30
2022-11-04T09:48:46.340Z,1.60
2022-11-04T09:51:32.639Z,1.70
2022-11-04T09:54:08.769Z,1.90
2022-11-04T09:56:39.128Z,1.77
2022-11-04T09:59:06.795Z,1.90
2022-11-04T10:02:03.978Z,2.67
2022-11-04T10:05:12.155Z,2.00
2022-11-04T10:08:09.585Z,2.77
2022-11-04T10:11:10.996Z,1.90
2022-11-04T10:14:35.268Z,1.80
2022-11-04T10:17:50.014Z,2.00
2022-11-04T10:20:59.454Z,1.83
2022-11-04T10:23:45.295Z,1.90
2022-11-04T10:29:20.268Z,2.57
2022-11-04T10:31:48.078Z,2.33
2022-11-04T10:34:38.087Z,1.53
2022-11-04T10:37:09.306Z,2.30
2022-11-04T10:39:41.503Z,2.20
2022-11-04T10:42:14.765Z,2.70
2022-11-04T10:44:42.137Z,2.27
2022-11-04T10:50:47.466Z,3.83
2022-11-04T10:53:18.933Z,4.10
2022-11-04T10:56:07.003Z,3.90
2022-11-04T10:58:43.149Z,3.47
2022-11-04T11:01:25.860Z,3.80
2022-11-04T11:03:53.269Z,3.10
2022-11-04T11:06:34.895Z,3.87
2022-11-04T11:09:14.433Z,3.20
2022-11-04T11:11:51.987Z,2.90
2022-11-04T11:14:40.873Z,2.77
2022-11-04T11:17:22.675Z,2.60
2022-11-04T11:19:58.563Z,2.40
2022-11-04T11:22:43.261Z,2.27
2022-11-04T11:25:50.628Z,2.17
2022-11-04T11:28:25.899Z,2.17
2022-11-04T11:31:04.434Z,2.03
2022-11-04T11:33:37.581Z,1.83
2022-11-04T11:36:29.909Z,1.80
2022-11-04T11:39:16.977Z,2.77
2022-11-04T11:41:57.105Z,3.20
2022-11-04T11:45:10.681Z,2.70
2022-11-04T11:47:42.136Z,2.60
2022-11-04T11:50:20.968Z,2.40
2022-11-04T11:52:50.044Z,2.67
2022-11-04T11:55:21.638Z,2.87
2022-11-04T12:01:26.924Z,3.13
2022-11-04T12:10:56.393Z,3.37
2022-11-04T12:13:32.677Z,3.07
2022-11-04T12:16:37.611Z,3.77
2022-11-04T12:19:32.282Z,3.00
2022-11-04T12:22:33.827Z,2.23
2022-11-04T12:25:26.961Z,2.23
2022-11-04T12:28:25.771Z,2.30
2022-11-04T12:31:08.652Z,2.20
2022-11-04T12:34:19.460Z,2.20
2022-11-04T12:37:22.652Z,2.10
2022-11-04T12:40:12.781Z,2.43
2022-11-04T12:43:20.545Z,2.10
2022-11-04T12:46:44.402Z,3.27
2022-11-04T12:49:34.742Z,3.07
2022-11-04T13:05:47.407Z,3.97
2022-11-04T13:08:33.388Z,3.57
2022-11-04T13:11:45.667Z,4.33
2022-11-04T13:14:29.836Z,3.97
2022-11-04T13:17:00.504Z,3.80
2022-11-04T13:19:35.121Z,2.93
2022-11-04T13:22:19.580Z,3.63
2022-11-04T13:24:51.635Z,3.80
2022-11-04T13:27:33.330Z,3.50
2022-11-04T13:30:27.234Z,4.03
2022-11-04T13:33:02.681Z,2.90
2022-11-04T13:35:39.935Z,3.30
2022-11-04T13:38:15.686Z,3.50
2022-11-04T13:41:28.059Z,3.47
2022-11-04T13:44:00.127Z,3.23
2022-11-04T13:46:35.214Z,3.07
2022-11-04T13:49:23.896Z,3.50
2022-11-04T13:52:13.869Z,3.57
2022-11-04T13:54:44.700Z,3.20
2022-11-04T13:57:19.091Z,3.17
2022-11-04T14:00:13.453Z,3.50
2022-11-04T14:03:03.124Z,3.03
2022-11-04T14:06:03.690Z,3.77
2022-11-04T14:08:31.777Z,3.93
2022-11-04T14:11:12.284Z,3.47
2022-11-04T14:13:46.449Z,4.60
2022-11-04T14:16:46.041Z,4.10
2022-11-04T14:19:57.823Z,3.37
2022-11-04T14:22:55.888Z,4.03
2022-11-04T14:25:31.344Z,3.63
2022-11-04T14:28:31.221Z,3.20
2022-11-04T14:31:01.786Z,3.03
2022-11-04T14:33:56.027Z,2.93
2022-11-04T14:36:30.600Z,3.40
2022-11-04T14:59:21.629Z,4.50
2022-11-04T15:01:52.060Z,4.53
2022-11-04T15:04:28.194Z,4.13
2022-11-04T15:07:00.738Z,4.17
2022-11-04T15:09:39.706Z,4.70
2022-11-04T15:12:28.434Z,4.67
2022-11-04T15:14:56.330Z,4.87
2022-11-04T15:17:26.960Z,5.10
2022-11-04T15:19:56.500Z,5.00
2022-11-04T15:22:24.181Z,5.03
2022-11-04T15:24:51.333Z,4.50
2022-11-04T15:27:23.975Z,5.50
2022-11-04T15:30:26.659Z,4.43
2022-11-04T15:33:00.270Z,5.60
2022-11-04T15:35:30.067Z,5.33
2022-11-04T15:37:59.383Z,6.50
2022-11-04T15:40:32.487Z,6.50
2022-11-04T15:43:02.459Z,7.70
2022-11-04T15:45:39.817Z,6.60
2022-11-04T15:48:42.138Z,6.43
2022-11-04T15:51:17.484Z,7.50
2022-11-04T15:54:05.351Z,9.10
2022-11-04T15:56:51.963Z,6.10
2022-11-04T15:59:30.699Z,6.10
2022-11-04T16:01:58.215Z,6.37
2022-11-04T16:04:27.946Z,6.57
2022-11-04T16:07:30.729Z,8.27
2022-11-04T16:09:57.859Z,7.87
2022-11-04T16:12:27.127Z,7.03
2022-11-04T16:21:31.713Z,7.63
2022-11-04T16:25:21.496Z,7.70
2022-11-04T16:27:39.890Z,12.60
2022-11-04T16:30:19.089Z,9.50
2022-11-04T16:32:51.340Z,10.10
2022-11-04T16:35:29.259Z,9.50
2022-11-04T16:37:56.848Z,9.20
2022-11-04T16:40:25.005Z,9.30
2022-11-04T16:42:53.554Z,9.70
2022-11-04T16:45:30.304Z,9.10
2022-11-04T16:47:57.596Z,9.33
2022-11-04T16:50:25.282Z,9.90
2022-11-04T16:52:52.783Z,9.67
2022-11-04T16:55:22.943Z,9.37
2022-11-04T16:57:55.347Z,9.13
2022-11-04T17:00:26.275Z,9.87
2022-11-04T17:02:53.444Z,10.13
2022-11-04T17:05:20.820Z,10.67
2022-11-04T17:07:54.237Z,11.50
2022-11-04T17:10:27.103Z,10.00
2022-11-04T17:12:54.274Z,11.70
2022-11-04T17:15:21.289Z,13.23
2022-11-04T17:17:48.598Z,14.50
2022-11-04T17:20:17.948Z,12.07
2022-11-04T17:22:47.005Z,12.00
2022-11-04T17:25:26.393Z,11.30
2022-11-04T17:27:53.831Z,12.23
2022-11-04T17:30:25.432Z,11.60
2022-11-04T17:32:52.557Z,12.10
2022-11-04T17:35:19.763Z,12.40
2022-11-04T17:37:47.011Z,11.30
2022-11-04T17:40:18.604Z,10.90
2022-11-04T17:43:11.455Z,11.00
2022-11-04T17:45:39.192Z,10.83
2022-11-04T17:48:06.795Z,10.27
2022-11-04T17:50:34.560Z,10.77
2022-11-04T17:53:01.761Z,9.43
2022-11-04T17:55:28.758Z,9.77
2022-11-04T17:57:55.993Z,9.40
2022-11-04T18:00:30.182Z,10.10
2022-11-04T18:02:57.298Z,9.80
2022-11-04T18:05:24.284Z,12.53
2022-11-04T18:07:54.123Z,10.43
2022-11-04T18:10:21.149Z,10.03
2022-11-04T18:12:48.183Z,10.30
2022-11-04T18:15:19.087Z,11.17
2022-11-04T18:17:46.441Z,9.43
2022-11-04T18:20:18.078Z,10.00
2022-11-04T18:22:45.240Z,9.50
2022-11-04T18:25:12.721Z,9.20
2022-11-04T18:27:41.089Z,9.00
2022-11-04T18:30:08.570Z,9.07
2022-11-04T18:32:35.792Z,10.70
2022-11-04T18:35:02.834Z,10.13
2022-11-04T18:37:30.763Z,9.40
2022-11-04T18:39:57.693Z,8.53
2022-11-04T18:42:24.724Z,9.40
2022-11-04T18:44:51.730Z,9.80
2022-11-04T18:47:18.754Z,10.27
2022-11-04T18:49:47.416Z,10.60
2022-11-04T18:52:14.463Z,10.13
2022-11-04T18:54:43.898Z,8.97
2022-11-04T18:57:12.165Z,10.27
2022-11-04T18:59:39.204Z,10.90
2022-11-04T19:02:06.776Z,10.03
2022-11-04T19:04:33.990Z,9.30
2022-11-04T19:07:01.046Z,10.00
2022-11-04T19:12:34.886Z,10.20
2022-11-04T19:15:04.171Z,9.60
2022-11-04T19:17:31.374Z,9.73
2022-11-04T19:19:58.539Z,11.60
2022-11-04T19:22:25.532Z,10.50
2022-11-04T19:24:53.097Z,11.27
2022-11-04T19:27:23.286Z,9.60
2022-11-04T19:29:50.374Z,11.70
2022-11-04T19:32:17.528Z,12.37
2022-11-04T19:34:44.883Z,13.17
2022-11-04T19:37:12.067Z,12.33
2022-11-04T19:39:39.541Z,12.63
2022-11-04T19:42:25.178Z,12.93
2022-11-04T19:44:52.305Z,12.70
2022-11-04T19:47:19.323Z,13.20
2022-11-04T19:49:46.255Z,15.83
2022-11-04T19:52:13.426Z,15.23
2022-11-04T19:54:40.559Z,14.40
2022-11-04T19:57:07.626Z,13.93
2022-11-04T19:59:34.624Z,15.80
2022-11-04T20:02:01.920Z,15.30
2022-11-04T20:04:29.091Z,14.67
2022-11-04T20:06:56.464Z,15.00
2022-11-04T20:09:23.474Z,15.97
2022-11-04T20:12:09.174Z,15.23
2022-11-04T20:14:36.112Z,18.63
2022-11-04T20:17:04.997Z,18.90
2022-11-04T20:19:32.093Z,18.50
2022-11-04T20:21:59.082Z,18.80
2022-11-04T20:24:26.161Z,22.13
2022-11-04T20:26:53.316Z,20.97
2022-11-04T20:29:20.301Z,23.70
2022-11-04T20:31:47.423Z,21.77
2022-11-04T20:34:14.896Z,22.10
2022-11-04T20:36:41.928Z,23.40
2022-11-04T20:39:14.775Z,27.60
2022-11-04T20:41:42.383Z,30.43
2022-11-04T20:44:14.348Z,28.60
2022-11-04T20:46:42.734Z,29.80
2022-11-04T20:49:10.238Z,30.00
2022-11-04T20:51:42.404Z,32.70
2022-11-04T20:54:11.456Z,30.27
2022-11-04T20:56:40.856Z,27.47
2022-11-04T20:59:09.745Z,25.87
2022-11-04T21:01:39.213Z,28.47
2022-11-04T21:04:09.591Z,24.03
2022-11-04T21:06:40.336Z,25.50
2022-11-04T21:09:11.537Z,24.80
2022-11-04T21:11:39.768Z,24.57
2022-11-04T21:14:08.256Z,25.53
2022-11-04T21:16:35.942Z,25.50
2022-11-04T21:19:04.812Z,23.13
2022-11-04T21:21:33.218Z,24.60
2022-11-04T21:24:05.294Z,24.73
2022-11-04T21:26:35.817Z,23.33
2022-11-04T21:29:07.492Z,25.03
2022-11-04T21:31:36.480Z,23.13
2022-11-04T21:34:04.513Z,24.33
2022-11-04T21:36:31.897Z,24.33
2022-11-04T21:38:59.566Z,25.20
2022-11-04T21:41:29.767Z,23.73
2022-11-04T21:44:00.476Z,23.77
2022-11-04T21:46:30.594Z,25.07
2022-11-04T21:48:59.163Z,23.90
2022-11-04T21:51:31.891Z,24.57
2022-11-04T21:54:00.012Z,24.33
2022-11-04T21:56:29.494Z,23.93
2022-11-04T21:58:56.709Z,25.60
2022-11-04T22:01:28.186Z,24.97
2022-11-04T22:03:59.456Z,25.33
2022-11-04T22:06:33.242Z,24.57
2022-11-04T22:09:01.780Z,26.23
2022-11-04T22:11:31.401Z,24.20
2022-11-04T22:14:00.482Z,24.50
2022-11-04T22:16:30.125Z,24.50
2022-11-04T22:19:03.230Z,26.07
2022-11-04T22:21:32.065Z,25.80
2022-11-04T22:23:59.772Z,25.23
2022-11-04T22:26:29.444Z,25.17
2022-11-04T22:28:57.203Z,24.93
2022-11-04T22:31:30.943Z,26.03
2022-11-04T22:33:59.719Z,25.57
2022-11-04T22:36:27.357Z,33.10
2022-11-04T22:38:54.788Z,26.93
2022-11-04T22:41:24.592Z,28.37
2022-11-04T22:43:51.663Z,28.17
2022-11-04T22:46:24.218Z,28.47
2022-11-04T22:48:51.389Z,26.13
2022-11-04T22:51:18.632Z,27.97
2022-11-04T22:53:48.108Z,27.40
2022-11-04T22:56:18.477Z,26.50
2022-11-04T22:58:45.389Z,29.20
2022-11-04T23:01:14.464Z,28.00
2022-11-04T23:03:42.196Z,27.60
2022-11-04T23:06:10.557Z,26.40
2022-11-04T23:08:40.179Z,26.77
2022-11-04T23:11:33.949Z,26.50
2022-11-04T23:14:21.052Z,26.57
2022-11-04T23:17:09.653Z,27.83
2022-11-04T23:19:37.570Z,27.40
2022-11-04T23:22:23.336Z,26.73
2022-11-04T23:25:12.386Z,26.73
2022-11-04T23:28:28.563Z,26.80
2022-11-04T23:30:57.180Z,27.50
2022-11-04T23:33:44.111Z,25.90
2022-11-04T23:36:32.390Z,25.23
2022-11-04T23:38:59.327Z,24.60
2022-11-04T23:41:44.659Z,26.03
2022-11-04T23:44:31.636Z,24.90
2022-11-04T23:47:17.156Z,24.70
2022-11-04T23:50:02.485Z,26.43
2022-11-04T23:52:48.194Z,25.13
2022-11-04T23:55:33.794Z,24.97
2022-11-04T23:58:19.465Z,23.77
